AirNav   Air Wisconsin Up To $57,000 Bonus
 
 1127 users online  

0C2 Hinckley Airport
Hinckley, Illinois, USA

GOING TO HINCKLEY?


FAA INFORMATION EFFECTIVE 15 JULY 2021

Location

FAA Identifier: 0C2
Lat/Long: 41-46-15.1060N 088-42-12.2920W
41-46.251767N 088-42.204867W
41.7708628,-88.7034144
(estimated)
Elevation: 760 ft. / 232 m (estimated)
Variation: 00W (1985)
From city: 3 miles W of HINCKLEY, IL
Time zone: UTC -5 (UTC -6 during Standard Time)
Zip code: 60520

Airport Operations

Airport use: Open to the public
Activation date: 05/1966
Control tower: no
ARTCC: CHICAGO CENTER
FSS: KANKAKEE FLIGHT SERVICE STATION
NOTAMs facility: IKK (NOTAM-D service available)
Attendance: IREG
Wind indicator: yes
Segmented circle: no

Airport Communications

CTAF: 122.9
WX AWOS-3 at DKB (10 nm N): 119.075 (815-748-2350)
WX ASOS at ARR (10 nm E): PHONE 630-466-5622
WX AWOS-3 at RPJ (18 nm NW): 125.2 (815-562-2955)

Nearby radio navigation aids

VOR radial/distance  VOR name  Freq  Var
DPAr244/17.3DUPAGE VOR/DME108.4002E
JOTr306/21.9JOLIET VOR/DME112.3002E
RFDr140/35.1ROCKFORD VOR/DME110.8001E
PLLr105/38.5POLO VOR/DME111.2003E

Airport Services

Parking: tiedowns
Bottled oxygen: NONE
Bulk oxygen: NONE

Runway Information

Runway 9/27

Dimensions: 2640 x 100 ft. / 805 x 30 m
Surface: turf, in good condition
RUNWAY 9  RUNWAY 27
Latitude: 41-46.251333N41-46.251667N
Longitude: 088-42.501833W088-41.921500W
Elevation: 760.0 ft.755.0 ft.
Traffic pattern: leftleft
Markings: nonenone
Runway end identifier lights: nono

Airport Ownership and Management from official FAA records

Ownership: Privately-owned
Owner: PARTNERS INVESTMENT CAP INC.
170 N MAY ST.
HINCKLEY, IL 60520
Phone 847-888-2919
Manager: ALAN ABELL
1610 HIGHLAND AVE.
ELGIN, IL 60123
Phone 847-888-2919

Airport Operational Statistics

Aircraft based on the field: 35
Single engine airplanes: 9
Multi engine airplanes: 1
Gliders airplanes: 25
    
Aircraft operations: avg 131/day *
77% local general aviation
23% transient general aviation
* for 12-month period ending 31 August 2019

Additional Remarks

A52-09 RYS 09 & 27 8 FT CROPS OFF RY ENDS DURING GROWING SEASON.
SOARING CONDUCTED AT ARPT.
GLIDER OPNS SFC-17,500 FT.
ARPT MAY BE UNUSBL UNDER VERY WET CONDS.
RY 09/27 NOT PLOWED; USE AT OWN RISK.
FOR CD CTC CHICAGO APCH AT 847-289-0926.

Instrument Procedures

There are no published instrument procedures at 0C2.

Some nearby airports with instrument procedures:

KDKB - De Kalb Taylor Municipal Airport (10 nm N)
KARR - Aurora Municipal Airport (10 nm E)
KRPJ - Rochelle Municipal Airport/Koritz Field (18 nm NW)
KDPA - DuPage Airport (22 nm E)
C09 - Morris Municipal Airport-James R. Washburn Field (24 nm SE)
 
Loc | Ops | Rwys | IFR | FBO | Links
Com | Nav | Svcs | Stats | Notes
Area around 0C2 (Hinckley Airport)
 
Road maps at: MapQuest Bing Google
 
Aerial photo
WARNING: Photo may not be current or correct
Aerial photo of 0C2 (Hinckley Airport)
Photo taken 07-May-2006

Do you have a better or more recent aerial photo of Hinckley Airport that you would like to share? If so, please send us your photo.

 
Sectional chart

 
Airport distance calculator
Flying to Hinckley Airport? Find the distance to fly.

From to 0C2

Sunrise and sunset
Times for 05-Aug-2021
 Local
(UTC-5)
 Zulu
(UTC)
Morning civil twilight05:2310:23
Sunrise05:5410:54
Sunset20:0801:08
Evening civil twilight20:3901:39

Current date and time
Zulu (UTC)  06-Aug-2021 00:01:18
Local (UTC-5)  05-Aug-2021 19:01:18
 
METAR
KDKB 
10nm N 
052335Z AUTO 21009KT 10SM BKN110 25/17 A3005 RMK AO2 T02490170
KARR 
10nm E 
052352Z 19005KT 10SM BKN110 26/17 A3003 RMK AO2 SLP167 T02560172 10289 20256 58004
KRPJ 
18nm NW 
052355Z AUTO 20003KT 10SM OVC090 26/21 A3004 RMK AO2 T02560210 10295 20256
TAF
KDPA 
22nm NE 
052107Z 0521/0618 20010G16KT P6SM SCT070 SCT200 FM060100 18006KT P6SM BKN100 FM061000 20009KT P6SM VCSH SCT035 OVC060 TEMPO 0610/0614 5SM -SHRA FM061700 22011G17KT P6SM SCT040
NOTAMs
Click for the latest NOTAMs
NOTAMs are issued by the DoD/FAA and will open in a separate window not controlled by AirNav.

 

 
 

Would you like to see your business listed on this page?

 If your business provides an interesting product or service to pilots, flight crews, aircraft, or users of the Hinckley Airport, you should consider listing it here.  To start the listing process, click on the button below
 
Add a business
 

Other Pages about Hinckley Airport

Update a link
 
Copyright © AirNav, LLC. All rights reserved. Privacy Policy  Contact